sensor_id;sensor_type;location;lat;lon;timestamp;P1;durP1;ratioP1;P2;durP2;ratioP2
1775;SDS011;885;42.626;23.200;2022-11-28T00:00:29;8.80;;;7.27;;
1775;SDS011;885;42.626;23.200;2022-11-28T00:02:56;5.77;;;5.27;;
1775;SDS011;885;42.626;23.200;2022-11-28T00:05:25;7.30;;;5.20;;
1775;SDS011;885;42.626;23.200;2022-11-28T00:07:51;6.53;;;5.93;;
1775;SDS011;885;42.626;23.200;2022-11-28T00:10:19;7.00;;;5.90;;
1775;SDS011;885;42.626;23.200;2022-11-28T00:12:46;5.83;;;5.33;;
1775;SDS011;885;42.626;23.200;2022-11-28T00:15:13;7.13;;;6.07;;
1775;SDS011;885;42.626;23.200;2022-11-28T00:17:40;5.10;;;4.60;;
1775;SDS011;885;42.626;23.200;2022-11-28T00:20:07;6.27;;;5.57;;
1775;SDS011;885;42.626;23.200;2022-11-28T00:22:35;7.47;;;6.50;;
1775;SDS011;885;42.626;23.200;2022-11-28T00:25:02;5.53;;;5.07;;
1775;SDS011;885;42.626;23.200;2022-11-28T00:27:29;5.53;;;4.93;;
1775;SDS011;885;42.626;23.200;2022-11-28T00:29:56;5.63;;;5.13;;
1775;SDS011;885;42.626;23.200;2022-11-28T00:32:23;5.73;;;5.23;;
1775;SDS011;885;42.626;23.200;2022-11-28T00:34:50;6.20;;;5.60;;
1775;SDS011;885;42.626;23.200;2022-11-28T00:37:16;6.50;;;5.90;;
1775;SDS011;885;42.626;23.200;2022-11-28T00:39:44;5.70;;;5.20;;
1775;SDS011;885;42.626;23.200;2022-11-28T00:42:11;4.83;;;4.53;;
1775;SDS011;885;42.626;23.200;2022-11-28T00:44:38;4.90;;;4.50;;
1775;SDS011;885;42.626;23.200;2022-11-28T00:47:05;5.83;;;5.23;;
1775;SDS011;885;42.626;23.200;2022-11-28T00:49:32;4.73;;;4.13;;
1775;SDS011;885;42.626;23.200;2022-11-28T00:51:59;4.57;;;4.13;;
1775;SDS011;885;42.626;23.200;2022-11-28T00:54:25;6.97;;;5.60;;
1775;SDS011;885;42.626;23.200;2022-11-28T00:56:54;7.00;;;5.50;;
1775;SDS011;885;42.626;23.200;2022-11-28T00:59:20;5.77;;;4.53;;
1775;SDS011;885;42.626;23.200;2022-11-28T01:01:47;4.40;;;4.00;;
1775;SDS011;885;42.626;23.200;2022-11-28T01:04:15;4.20;;;3.80;;
1775;SDS011;885;42.626;23.200;2022-11-28T01:06:43;3.73;;;3.43;;
1775;SDS011;885;42.626;23.200;2022-11-28T01:09:12;4.80;;;4.30;;
1775;SDS011;885;42.626;23.200;2022-11-28T01:11:41;4.77;;;4.37;;
1775;SDS011;885;42.626;23.200;2022-11-28T01:14:11;4.60;;;4.20;;
1775;SDS011;885;42.626;23.200;2022-11-28T01:16:38;5.27;;;4.77;;
1775;SDS011;885;42.626;23.200;2022-11-28T01:19:05;4.90;;;4.40;;
1775;SDS011;885;42.626;23.200;2022-11-28T01:21:32;5.10;;;4.60;;
1775;SDS011;885;42.626;23.200;2022-11-28T01:23:59;3.37;;;3.07;;
1775;SDS011;885;42.626;23.200;2022-11-28T01:26:27;3.27;;;2.97;;
1775;SDS011;885;42.626;23.200;2022-11-28T01:28:55;2.97;;;2.77;;
1775;SDS011;885;42.626;23.200;2022-11-28T01:31:24;3.83;;;3.53;;
1775;SDS011;885;42.626;23.200;2022-11-28T01:33:52;3.23;;;3.00;;
1775;SDS011;885;42.626;23.200;2022-11-28T01:36:20;3.83;;;3.53;;
1775;SDS011;885;42.626;23.200;2022-11-28T01:38:48;2.90;;;2.60;;
1775;SDS011;885;42.626;23.200;2022-11-28T01:41:16;2.90;;;2.57;;
1775;SDS011;885;42.626;23.200;2022-11-28T01:43:55;3.70;;;3.27;;
1775;SDS011;885;42.626;23.200;2022-11-28T01:46:31;2.80;;;2.60;;
1775;SDS011;885;42.626;23.200;2022-11-28T01:49:00;2.67;;;2.47;;
1775;SDS011;885;42.626;23.200;2022-11-28T01:51:31;2.97;;;2.77;;
1775;SDS011;885;42.626;23.200;2022-11-28T01:53:59;3.23;;;3.03;;
1775;SDS011;885;42.626;23.200;2022-11-28T01:56:28;3.47;;;3.17;;
1775;SDS011;885;42.626;23.200;2022-11-28T01:59:01;3.83;;;3.53;;
1775;SDS011;885;42.626;23.200;2022-11-28T02:01:33;4.00;;;3.27;;
1775;SDS011;885;42.626;23.200;2022-11-28T02:04:01;3.07;;;2.77;;
1775;SDS011;885;42.626;23.200;2022-11-28T02:06:29;2.97;;;2.70;;
1775;SDS011;885;42.626;23.200;2022-11-28T02:08:57;2.90;;;2.60;;
1775;SDS011;885;42.626;23.200;2022-11-28T02:14:32;2.90;;;2.63;;
1775;SDS011;885;42.626;23.200;2022-11-28T02:17:18;2.40;;;2.20;;
1775;SDS011;885;42.626;23.200;2022-11-28T02:22:51;5.40;;;3.73;;
1775;SDS011;885;42.626;23.200;2022-11-28T02:28:36;2.60;;;2.33;;
1775;SDS011;885;42.626;23.200;2022-11-28T02:31:36;3.03;;;2.73;;
1775;SDS011;885;42.626;23.200;2022-11-28T02:34:22;2.20;;;2.00;;
1775;SDS011;885;42.626;23.200;2022-11-28T02:36:57;2.10;;;1.90;;
1775;SDS011;885;42.626;23.200;2022-11-28T02:39:29;1.80;;;1.70;;
1775;SDS011;885;42.626;23.200;2022-11-28T02:42:01;1.93;;;1.80;;
1775;SDS011;885;42.626;23.200;2022-11-28T02:44:36;2.10;;;1.90;;
1775;SDS011;885;42.626;23.200;2022-11-28T02:47:12;1.83;;;1.73;;
1775;SDS011;885;42.626;23.200;2022-11-28T02:49:46;2.50;;;2.30;;
1775;SDS011;885;42.626;23.200;2022-11-28T02:52:18;2.20;;;2.00;;
1775;SDS011;885;42.626;23.200;2022-11-28T02:54:49;2.10;;;1.90;;
1775;SDS011;885;42.626;23.200;2022-11-28T02:57:17;2.10;;;2.00;;
1775;SDS011;885;42.626;23.200;2022-11-28T02:59:45;2.10;;;1.90;;
1775;SDS011;885;42.626;23.200;2022-11-28T03:02:16;1.83;;;1.73;;
1775;SDS011;885;42.626;23.200;2022-11-28T03:04:49;2.40;;;2.20;;
1775;SDS011;885;42.626;23.200;2022-11-28T03:07:26;1.70;;;1.60;;
1775;SDS011;885;42.626;23.200;2022-11-28T03:10:11;2.13;;;1.90;;
1775;SDS011;885;42.626;23.200;2022-11-28T03:12:49;2.50;;;2.30;;
1775;SDS011;885;42.626;23.200;2022-11-28T03:15:22;2.40;;;2.20;;
1775;SDS011;885;42.626;23.200;2022-11-28T03:18:01;2.53;;;2.33;;
1775;SDS011;885;42.626;23.200;2022-11-28T03:20:35;3.10;;;2.80;;
1775;SDS011;885;42.626;23.200;2022-11-28T03:23:12;3.17;;;2.83;;
1775;SDS011;885;42.626;23.200;2022-11-28T03:25:48;2.43;;;2.23;;
1775;SDS011;885;42.626;23.200;2022-11-28T03:28:22;2.57;;;2.37;;
1775;SDS011;885;42.626;23.200;2022-11-28T03:30:54;2.90;;;2.63;;
1775;SDS011;885;42.626;23.200;2022-11-28T03:33:28;2.90;;;2.57;;
1775;SDS011;885;42.626;23.200;2022-11-28T03:35:58;3.10;;;2.80;;
1775;SDS011;885;42.626;23.200;2022-11-28T03:38:30;3.23;;;2.93;;
1775;SDS011;885;42.626;23.200;2022-11-28T03:41:02;3.37;;;3.07;;
1775;SDS011;885;42.626;23.200;2022-11-28T03:43:35;3.80;;;3.40;;
1775;SDS011;885;42.626;23.200;2022-11-28T03:46:07;3.93;;;3.63;;
1775;SDS011;885;42.626;23.200;2022-11-28T03:48:41;3.07;;;2.77;;
1775;SDS011;885;42.626;23.200;2022-11-28T03:51:13;3.40;;;3.10;;
1775;SDS011;885;42.626;23.200;2022-11-28T03:53:44;3.63;;;3.33;;
1775;SDS011;885;42.626;23.200;2022-11-28T03:56:17;3.73;;;3.43;;
1775;SDS011;885;42.626;23.200;2022-11-28T03:58:50;2.70;;;2.50;;
1775;SDS011;885;42.626;23.200;2022-11-28T04:01:26;4.07;;;3.37;;
1775;SDS011;885;42.626;23.200;2022-11-28T04:04:08;3.77;;;2.70;;
1775;SDS011;885;42.626;23.200;2022-11-28T04:06:43;3.60;;;3.27;;
1775;SDS011;885;42.626;23.200;2022-11-28T04:09:19;4.23;;;3.43;;
1775;SDS011;885;42.626;23.200;2022-11-28T04:11:58;3.60;;;3.30;;
1775;SDS011;885;42.626;23.200;2022-11-28T04:14:33;3.10;;;2.80;;
1775;SDS011;885;42.626;23.200;2022-11-28T04:17:06;6.20;;;4.47;;
1775;SDS011;885;42.626;23.200;2022-11-28T04:19:40;4.57;;;4.17;;
1775;SDS011;885;42.626;23.200;2022-11-28T04:22:11;3.63;;;3.10;;
1775;SDS011;885;42.626;23.200;2022-11-28T04:24:43;3.00;;;2.80;;
1775;SDS011;885;42.626;23.200;2022-11-28T04:27:16;3.50;;;3.20;;
1775;SDS011;885;42.626;23.200;2022-11-28T04:29:47;3.03;;;2.83;;
1775;SDS011;885;42.626;23.200;2022-11-28T04:32:18;2.87;;;2.67;;
1775;SDS011;885;42.626;23.200;2022-11-28T04:34:51;3.63;;;3.33;;
1775;SDS011;885;42.626;23.200;2022-11-28T04:37:21;3.60;;;3.07;;
1775;SDS011;885;42.626;23.200;2022-11-28T04:39:52;2.97;;;2.60;;
1775;SDS011;885;42.626;23.200;2022-11-28T04:42:25;3.37;;;3.07;;
1775;SDS011;885;42.626;23.200;2022-11-28T04:44:59;2.27;;;2.07;;
1775;SDS011;885;42.626;23.200;2022-11-28T04:47:33;2.70;;;2.50;;
1775;SDS011;885;42.626;23.200;2022-11-28T04:50:04;3.20;;;2.90;;
1775;SDS011;885;42.626;23.200;2022-11-28T04:52:33;3.10;;;2.90;;
1775;SDS011;885;42.626;23.200;2022-11-28T04:55:07;3.13;;;2.83;;
1775;SDS011;885;42.626;23.200;2022-11-28T04:57:38;3.20;;;2.90;;
1775;SDS011;885;42.626;23.200;2022-11-28T05:00:08;3.77;;;3.47;;
1775;SDS011;885;42.626;23.200;2022-11-28T05:02:38;3.43;;;2.73;;
1775;SDS011;885;42.626;23.200;2022-11-28T05:05:08;3.73;;;3.43;;
1775;SDS011;885;42.626;23.200;2022-11-28T05:07:37;3.50;;;3.20;;
1775;SDS011;885;42.626;23.200;2022-11-28T05:10:04;2.50;;;2.30;;
1775;SDS011;885;42.626;23.200;2022-11-28T05:12:32;3.87;;;3.40;;
1775;SDS011;885;42.626;23.200;2022-11-28T05:14:59;4.30;;;3.90;;
1775;SDS011;885;42.626;23.200;2022-11-28T05:17:26;3.57;;;3.27;;
1775;SDS011;885;42.626;23.200;2022-11-28T05:19:53;4.27;;;3.87;;
1775;SDS011;885;42.626;23.200;2022-11-28T05:22:21;3.87;;;3.57;;
1775;SDS011;885;42.626;23.200;2022-11-28T05:24:48;3.43;;;3.13;;
1775;SDS011;885;42.626;23.200;2022-11-28T05:27:15;3.30;;;3.10;;
1775;SDS011;885;42.626;23.200;2022-11-28T05:29:42;2.93;;;2.73;;
1775;SDS011;885;42.626;23.200;2022-11-28T05:32:10;3.20;;;3.00;;
1775;SDS011;885;42.626;23.200;2022-11-28T05:34:37;3.57;;;3.27;;
1775;SDS011;885;42.626;23.200;2022-11-28T05:37:04;3.67;;;2.97;;
1775;SDS011;885;42.626;23.200;2022-11-28T05:39:32;2.67;;;2.47;;
1775;SDS011;885;42.626;23.200;2022-11-28T05:41:59;2.83;;;2.53;;
1775;SDS011;885;42.626;23.200;2022-11-28T05:44:26;2.97;;;2.73;;
1775;SDS011;885;42.626;23.200;2022-11-28T05:46:53;5.07;;;4.43;;
1775;SDS011;885;42.626;23.200;2022-11-28T05:49:19;5.20;;;4.03;;
1775;SDS011;885;42.626;23.200;2022-11-28T05:51:47;3.30;;;3.07;;
1775;SDS011;885;42.626;23.200;2022-11-28T05:54:14;5.77;;;4.40;;
1775;SDS011;885;42.626;23.200;2022-11-28T05:56:42;5.13;;;3.40;;
1775;SDS011;885;42.626;23.200;2022-11-28T05:59:09;5.03;;;4.53;;
1775;SDS011;885;42.626;23.200;2022-11-28T06:01:38;5.63;;;4.70;;
1775;SDS011;885;42.626;23.200;2022-11-28T06:04:05;5.33;;;4.80;;
1775;SDS011;885;42.626;23.200;2022-11-28T06:06:32;5.17;;;4.27;;
1775;SDS011;885;42.626;23.200;2022-11-28T06:09:00;4.80;;;4.30;;
1775;SDS011;885;42.626;23.200;2022-11-28T06:11:31;5.20;;;4.70;;
1775;SDS011;885;42.626;23.200;2022-11-28T06:14:00;10.93;;;6.23;;
1775;SDS011;885;42.626;23.200;2022-11-28T06:16:28;8.90;;;5.67;;
1775;SDS011;885;42.626;23.200;2022-11-28T06:18:56;5.73;;;5.03;;
1775;SDS011;885;42.626;23.200;2022-11-28T06:21:25;5.67;;;5.07;;
1775;SDS011;885;42.626;23.200;2022-11-28T06:23:52;5.30;;;4.80;;
1775;SDS011;885;42.626;23.200;2022-11-28T06:26:21;4.90;;;4.40;;
1775;SDS011;885;42.626;23.200;2022-11-28T06:28:49;4.73;;;4.40;;
1775;SDS011;885;42.626;23.200;2022-11-28T06:31:18;5.80;;;5.30;;
1775;SDS011;885;42.626;23.200;2022-11-28T06:33:46;6.10;;;5.50;;
1775;SDS011;885;42.626;23.200;2022-11-28T06:36:14;5.73;;;5.20;;
1775;SDS011;885;42.626;23.200;2022-11-28T06:38:42;5.10;;;3.90;;
1775;SDS011;885;42.626;23.200;2022-11-28T06:41:10;4.70;;;3.90;;
1775;SDS011;885;42.626;23.200;2022-11-28T06:43:39;4.97;;;4.50;;
1775;SDS011;885;42.626;23.200;2022-11-28T06:46:09;5.93;;;5.43;;
1775;SDS011;885;42.626;23.200;2022-11-28T06:48:38;6.83;;;6.03;;
1775;SDS011;885;42.626;23.200;2022-11-28T06:51:05;7.13;;;6.47;;
1775;SDS011;885;42.626;23.200;2022-11-28T06:53:32;12.90;;;7.83;;
1775;SDS011;885;42.626;23.200;2022-11-28T06:56:03;9.30;;;8.40;;
1775;SDS011;885;42.626;23.200;2022-11-28T06:58:30;8.37;;;7.57;;
1775;SDS011;885;42.626;23.200;2022-11-28T07:01:03;8.80;;;8.00;;
1775;SDS011;885;42.626;23.200;2022-11-28T07:03:31;8.67;;;7.87;;
1775;SDS011;885;42.626;23.200;2022-11-28T07:06:00;9.77;;;8.60;;
1775;SDS011;885;42.626;23.200;2022-11-28T07:08:27;9.40;;;7.70;;
1775;SDS011;885;42.626;23.200;2022-11-28T07:10:55;9.23;;;8.27;;
1775;SDS011;885;42.626;23.200;2022-11-28T07:13:22;7.60;;;6.90;;
1775;SDS011;885;42.626;23.200;2022-11-28T07:15:49;8.00;;;7.30;;
1775;SDS011;885;42.626;23.200;2022-11-28T07:18:17;8.40;;;7.30;;
1775;SDS011;885;42.626;23.200;2022-11-28T07:20:43;18.60;;;14.30;;
1775;SDS011;885;42.626;23.200;2022-11-28T07:23:12;10.40;;;8.37;;
1775;SDS011;885;42.626;23.200;2022-11-28T07:25:38;13.97;;;11.50;;
1775;SDS011;885;42.626;23.200;2022-11-28T07:28:05;10.23;;;8.10;;
1775;SDS011;885;42.626;23.200;2022-11-28T07:30:32;9.10;;;7.60;;
1775;SDS011;885;42.626;23.200;2022-11-28T07:32:59;23.47;;;16.40;;
1775;SDS011;885;42.626;23.200;2022-11-28T07:35:26;9.40;;;8.40;;
1775;SDS011;885;42.626;23.200;2022-11-28T07:37:53;6.77;;;5.97;;
1775;SDS011;885;42.626;23.200;2022-11-28T07:40:21;6.87;;;6.20;;
1775;SDS011;885;42.626;23.200;2022-11-28T07:42:48;7.43;;;6.60;;
1775;SDS011;885;42.626;23.200;2022-11-28T07:45:15;9.43;;;8.40;;
1775;SDS011;885;42.626;23.200;2022-11-28T07:47:41;7.47;;;6.77;;
1775;SDS011;885;42.626;23.200;2022-11-28T07:50:08;8.07;;;7.27;;
1775;SDS011;885;42.626;23.200;2022-11-28T07:52:35;8.73;;;7.00;;
1775;SDS011;885;42.626;23.200;2022-11-28T07:55:02;9.10;;;8.17;;
1775;SDS011;885;42.626;23.200;2022-11-28T07:57:31;8.50;;;7.80;;
1775;SDS011;885;42.626;23.200;2022-11-28T07:59:58;6.97;;;5.80;;
1775;SDS011;885;42.626;23.200;2022-11-28T08:02:25;8.33;;;6.93;;
1775;SDS011;885;42.626;23.200;2022-11-28T08:04:56;7.30;;;6.60;;
1775;SDS011;885;42.626;23.200;2022-11-28T08:07:23;6.80;;;6.10;;
1775;SDS011;885;42.626;23.200;2022-11-28T08:09:50;8.47;;;7.60;;
1775;SDS011;885;42.626;23.200;2022-11-28T08:12:17;7.43;;;6.73;;
1775;SDS011;885;42.626;23.200;2022-11-28T08:14:45;7.80;;;6.43;;
1775;SDS011;885;42.626;23.200;2022-11-28T08:17:12;8.40;;;6.40;;
1775;SDS011;885;42.626;23.200;2022-11-28T08:19:39;7.37;;;6.60;;
1775;SDS011;885;42.626;23.200;2022-11-28T08:22:05;7.00;;;5.70;;
1775;SDS011;885;42.626;23.200;2022-11-28T08:24:32;10.00;;;7.10;;
1775;SDS011;885;42.626;23.200;2022-11-28T08:26:59;6.17;;;5.57;;
1775;SDS011;885;42.626;23.200;2022-11-28T08:29:26;7.63;;;6.90;;
1775;SDS011;885;42.626;23.200;2022-11-28T08:31:55;7.60;;;6.60;;
1775;SDS011;885;42.626;23.200;2022-11-28T08:34:21;10.50;;;9.50;;
1775;SDS011;885;42.626;23.200;2022-11-28T08:36:48;8.60;;;7.43;;
1775;SDS011;885;42.626;23.200;2022-11-28T08:39:15;8.57;;;7.53;;
1775;SDS011;885;42.626;23.200;2022-11-28T08:41:42;7.40;;;6.60;;
1775;SDS011;885;42.626;23.200;2022-11-28T08:44:09;6.83;;;6.13;;
1775;SDS011;885;42.626;23.200;2022-11-28T08:46:35;7.63;;;6.70;;
1775;SDS011;885;42.626;23.200;2022-11-28T08:49:03;7.23;;;5.70;;
1775;SDS011;885;42.626;23.200;2022-11-28T08:51:31;6.30;;;5.70;;
1775;SDS011;885;42.626;23.200;2022-11-28T08:53:58;6.20;;;5.60;;
1775;SDS011;885;42.626;23.200;2022-11-28T08:56:25;6.33;;;5.70;;
1775;SDS011;885;42.626;23.200;2022-11-28T08:58:52;8.43;;;7.57;;
1775;SDS011;885;42.626;23.200;2022-11-28T09:01:20;7.57;;;6.67;;
1775;SDS011;885;42.626;23.200;2022-11-28T09:03:48;8.07;;;7.30;;
1775;SDS011;885;42.626;23.200;2022-11-28T09:06:17;6.70;;;6.10;;
1775;SDS011;885;42.626;23.200;2022-11-28T09:08:45;11.80;;;8.03;;
1775;SDS011;885;42.626;23.200;2022-11-28T09:11:12;7.80;;;6.77;;
1775;SDS011;885;42.626;23.200;2022-11-28T09:13:41;7.70;;;6.90;;
1775;SDS011;885;42.626;23.200;2022-11-28T09:16:08;8.23;;;6.60;;
1775;SDS011;885;42.626;23.200;2022-11-28T09:18:35;8.33;;;7.20;;
1775;SDS011;885;42.626;23.200;2022-11-28T09:21:03;8.30;;;7.30;;
1775;SDS011;885;42.626;23.200;2022-11-28T09:23:34;8.43;;;7.57;;
1775;SDS011;885;42.626;23.200;2022-11-28T09:26:06;7.23;;;6.50;;
1775;SDS011;885;42.626;23.200;2022-11-28T09:28:33;6.17;;;5.07;;
1775;SDS011;885;42.626;23.200;2022-11-28T09:31:00;7.03;;;5.97;;
1775;SDS011;885;42.626;23.200;2022-11-28T09:33:28;7.60;;;6.83;;
1775;SDS011;885;42.626;23.200;2022-11-28T09:35:55;7.40;;;6.60;;
1775;SDS011;885;42.626;23.200;2022-11-28T09:38:22;7.57;;;6.87;;
1775;SDS011;885;42.626;23.200;2022-11-28T09:40:51;6.10;;;5.50;;
1775;SDS011;885;42.626;23.200;2022-11-28T09:43:19;6.30;;;5.70;;
1775;SDS011;885;42.626;23.200;2022-11-28T09:45:53;6.97;;;6.33;;
1775;SDS011;885;42.626;23.200;2022-11-28T09:48:23;7.53;;;6.77;;
1775;SDS011;885;42.626;23.200;2022-11-28T09:50:56;6.40;;;5.80;;
1775;SDS011;885;42.626;23.200;2022-11-28T09:53:29;6.50;;;5.83;;
1775;SDS011;885;42.626;23.200;2022-11-28T09:56:05;13.17;;;7.00;;
1775;SDS011;885;42.626;23.200;2022-11-28T09:58:38;7.80;;;6.10;;
1775;SDS011;885;42.626;23.200;2022-11-28T10:01:12;7.47;;;6.83;;
1775;SDS011;885;42.626;23.200;2022-11-28T10:03:43;6.50;;;5.80;;
1775;SDS011;885;42.626;23.200;2022-11-28T10:06:19;7.37;;;6.70;;
1775;SDS011;885;42.626;23.200;2022-11-28T10:08:53;7.20;;;6.50;;
1775;SDS011;885;42.626;23.200;2022-11-28T10:11:40;7.23;;;6.57;;
1775;SDS011;885;42.626;23.200;2022-11-28T10:17:12;8.33;;;6.80;;
1775;SDS011;885;42.626;23.200;2022-11-28T10:19:51;5.53;;;5.03;;
1775;SDS011;885;42.626;23.200;2022-11-28T10:22:21;8.10;;;6.63;;
1775;SDS011;885;42.626;23.200;2022-11-28T10:24:59;6.00;;;5.40;;
1775;SDS011;885;42.626;23.200;2022-11-28T10:27:34;6.10;;;5.50;;
1775;SDS011;885;42.626;23.200;2022-11-28T10:30:02;6.97;;;6.10;;
1775;SDS011;885;42.626;23.200;2022-11-28T10:32:32;7.20;;;6.50;;
1775;SDS011;885;42.626;23.200;2022-11-28T10:35:04;5.57;;;5.10;;
1775;SDS011;885;42.626;23.200;2022-11-28T10:37:37;5.80;;;5.30;;
1775;SDS011;885;42.626;23.200;2022-11-28T10:40:11;6.13;;;5.33;;
1775;SDS011;885;42.626;23.200;2022-11-28T10:42:45;6.30;;;5.70;;
1775;SDS011;885;42.626;23.200;2022-11-28T10:45:17;6.00;;;5.20;;
1775;SDS011;885;42.626;23.200;2022-11-28T10:47:56;6.33;;;5.50;;
1775;SDS011;885;42.626;23.200;2022-11-28T10:50:36;6.20;;;5.67;;
1775;SDS011;885;42.626;23.200;2022-11-28T10:53:10;5.37;;;4.87;;
1775;SDS011;885;42.626;23.200;2022-11-28T10:55:50;5.57;;;5.07;;
1775;SDS011;885;42.626;23.200;2022-11-28T10:58:31;4.20;;;3.90;;
1775;SDS011;885;42.626;23.200;2022-11-28T11:01:02;5.00;;;4.60;;
1775;SDS011;885;42.626;23.200;2022-11-28T11:03:30;4.97;;;4.47;;
1775;SDS011;885;42.626;23.200;2022-11-28T11:05:59;5.10;;;4.70;;
1775;SDS011;885;42.626;23.200;2022-11-28T11:08:27;4.90;;;4.30;;
1775;SDS011;885;42.626;23.200;2022-11-28T11:10:56;4.90;;;4.50;;
1775;SDS011;885;42.626;23.200;2022-11-28T11:13:32;6.60;;;5.90;;
1775;SDS011;885;42.626;23.200;2022-11-28T11:16:02;4.57;;;4.17;;
1775;SDS011;885;42.626;23.200;2022-11-28T11:18:32;4.60;;;4.20;;
1775;SDS011;885;42.626;23.200;2022-11-28T11:21:08;5.97;;;5.37;;
1775;SDS011;885;42.626;23.200;2022-11-28T11:23:40;5.17;;;4.77;;
1775;SDS011;885;42.626;23.200;2022-11-28T11:26:08;5.17;;;4.40;;
1775;SDS011;885;42.626;23.200;2022-11-28T11:28:49;4.20;;;3.80;;
1775;SDS011;885;42.626;23.200;2022-11-28T11:31:18;4.90;;;3.70;;
1775;SDS011;885;42.626;23.200;2022-11-28T11:33:47;4.50;;;4.20;;
1775;SDS011;885;42.626;23.200;2022-11-28T11:36:25;4.13;;;3.73;;
1775;SDS011;885;42.626;23.200;2022-11-28T11:41:46;6.80;;;5.30;;
1775;SDS011;885;42.626;23.200;2022-11-28T11:47:04;5.70;;;4.83;;
1775;SDS011;885;42.626;23.200;2022-11-28T11:49:33;6.00;;;5.27;;
1775;SDS011;885;42.626;23.200;2022-11-28T11:52:01;6.73;;;6.13;;
1775;SDS011;885;42.626;23.200;2022-11-28T11:54:32;5.90;;;5.30;;
1775;SDS011;885;42.626;23.200;2022-11-28T11:56:59;5.43;;;4.93;;
1775;SDS011;885;42.626;23.200;2022-11-28T11:59:28;4.93;;;4.03;;
1775;SDS011;885;42.626;23.200;2022-11-28T12:02:01;5.70;;;5.10;;
1775;SDS011;885;42.626;23.200;2022-11-28T12:04:36;5.73;;;5.23;;
1775;SDS011;885;42.626;23.200;2022-11-28T12:07:09;5.00;;;4.60;;
1775;SDS011;885;42.626;23.200;2022-11-28T12:09:46;6.30;;;5.30;;
1775;SDS011;885;42.626;23.200;2022-11-28T12:12:15;5.20;;;4.70;;
1775;SDS011;885;42.626;23.200;2022-11-28T12:14:43;4.90;;;4.40;;
1775;SDS011;885;42.626;23.200;2022-11-28T12:17:21;5.57;;;4.87;;
1775;SDS011;885;42.626;23.200;2022-11-28T12:19:59;5.20;;;4.70;;
1775;SDS011;885;42.626;23.200;2022-11-28T12:22:37;4.60;;;4.20;;
1775;SDS011;885;42.626;23.200;2022-11-28T12:25:15;4.93;;;4.37;;
1775;SDS011;885;42.626;23.200;2022-11-28T12:27:56;14.83;;;9.00;;
1775;SDS011;885;42.626;23.200;2022-11-28T12:30:31;38.07;;;19.20;;
1775;SDS011;885;42.626;23.200;2022-11-28T12:33:17;33.53;;;17.00;;
1775;SDS011;885;42.626;23.200;2022-11-28T12:35:54;53.53;;;24.97;;
1775;SDS011;885;42.626;23.200;2022-11-28T12:38:42;103.00;;;46.40;;
1775;SDS011;885;42.626;23.200;2022-11-28T12:44:37;11.90;;;9.53;;
1775;SDS011;885;42.626;23.200;2022-11-28T12:47:18;48.27;;;28.17;;
1775;SDS011;885;42.626;23.200;2022-11-28T12:49:54;16.00;;;10.60;;
1775;SDS011;885;42.626;23.200;2022-11-28T12:52:30;9.37;;;6.90;;
1775;SDS011;885;42.626;23.200;2022-11-28T12:58:01;5.77;;;5.27;;
1775;SDS011;885;42.626;23.200;2022-11-28T13:00:38;6.47;;;5.77;;
1775;SDS011;885;42.626;23.200;2022-11-28T13:03:17;9.50;;;7.00;;
1775;SDS011;885;42.626;23.200;2022-11-28T13:05:57;8.80;;;7.30;;
1775;SDS011;885;42.626;23.200;2022-11-28T13:08:40;9.63;;;8.27;;
1775;SDS011;885;42.626;23.200;2022-11-28T13:11:29;6.03;;;5.53;;
1775;SDS011;885;42.626;23.200;2022-11-28T13:14:04;5.90;;;4.80;;
1775;SDS011;885;42.626;23.200;2022-11-28T13:16:39;6.43;;;5.90;;
1775;SDS011;885;42.626;23.200;2022-11-28T13:19:10;7.73;;;5.80;;
1775;SDS011;885;42.626;23.200;2022-11-28T13:21:49;5.33;;;4.83;;
1775;SDS011;885;42.626;23.200;2022-11-28T13:24:23;6.40;;;5.77;;
1775;SDS011;885;42.626;23.200;2022-11-28T13:26:57;6.87;;;5.70;;
1775;SDS011;885;42.626;23.200;2022-11-28T13:29:34;6.90;;;6.20;;
1775;SDS011;885;42.626;23.200;2022-11-28T13:32:08;7.40;;;6.60;;
1775;SDS011;885;42.626;23.200;2022-11-28T13:34:41;6.53;;;5.90;;
1775;SDS011;885;42.626;23.200;2022-11-28T13:37:12;6.23;;;5.60;;
1775;SDS011;885;42.626;23.200;2022-11-28T13:39:46;6.67;;;5.97;;
1775;SDS011;885;42.626;23.200;2022-11-28T13:42:29;8.30;;;7.57;;
1775;SDS011;885;42.626;23.200;2022-11-28T13:45:00;7.03;;;6.10;;
1775;SDS011;885;42.626;23.200;2022-11-28T13:47:32;8.40;;;7.60;;
1775;SDS011;885;42.626;23.200;2022-11-28T13:53:24;7.00;;;6.23;;
1775;SDS011;885;42.626;23.200;2022-11-28T13:55:51;8.10;;;6.17;;
1775;SDS011;885;42.626;23.200;2022-11-28T13:58:46;8.30;;;7.43;;
1775;SDS011;885;42.626;23.200;2022-11-28T14:01:16;7.50;;;6.70;;
1775;SDS011;885;42.626;23.200;2022-11-28T14:03:45;8.53;;;7.37;;
1775;SDS011;885;42.626;23.200;2022-11-28T14:06:16;8.97;;;8.07;;
1775;SDS011;885;42.626;23.200;2022-11-28T14:08:46;7.47;;;6.70;;
1775;SDS011;885;42.626;23.200;2022-11-28T14:11:37;8.70;;;7.80;;
1775;SDS011;885;42.626;23.200;2022-11-28T14:14:21;10.37;;;8.87;;
1775;SDS011;885;42.626;23.200;2022-11-28T14:17:22;8.63;;;7.60;;
1775;SDS011;885;42.626;23.200;2022-11-28T14:20:14;10.50;;;9.43;;
1775;SDS011;885;42.626;23.200;2022-11-28T14:22:53;19.50;;;16.77;;
1775;SDS011;885;42.626;23.200;2022-11-28T14:25:31;14.50;;;12.50;;
1775;SDS011;885;42.626;23.200;2022-11-28T14:28:05;14.20;;;12.40;;
1775;SDS011;885;42.626;23.200;2022-11-28T14:30:42;13.03;;;10.50;;
1775;SDS011;885;42.626;23.200;2022-11-28T14:33:14;18.17;;;15.90;;
1775;SDS011;885;42.626;23.200;2022-11-28T14:39:02;8.77;;;7.90;;
1775;SDS011;885;42.626;23.200;2022-11-28T14:41:37;10.30;;;9.30;;
1775;SDS011;885;42.626;23.200;2022-11-28T14:44:45;9.83;;;8.77;;
1775;SDS011;885;42.626;23.200;2022-11-28T14:47:15;14.20;;;12.07;;
1775;SDS011;885;42.626;23.200;2022-11-28T14:50:43;12.13;;;10.77;;
1775;SDS011;885;42.626;23.200;2022-11-28T14:58:54;13.83;;;12.43;;
1775;SDS011;885;42.626;23.200;2022-11-28T15:01:26;14.20;;;11.40;;
1775;SDS011;885;42.626;23.200;2022-11-28T15:04:16;14.00;;;10.80;;
1775;SDS011;885;42.626;23.200;2022-11-28T15:07:00;12.10;;;11.00;;
1775;SDS011;885;42.626;23.200;2022-11-28T15:09:29;12.47;;;11.13;;
1775;SDS011;885;42.626;23.200;2022-11-28T15:12:09;13.30;;;11.87;;
1775;SDS011;885;42.626;23.200;2022-11-28T15:14:42;14.43;;;11.10;;
1775;SDS011;885;42.626;23.200;2022-11-28T15:17:13;14.33;;;12.83;;
1775;SDS011;885;42.626;23.200;2022-11-28T15:19:50;18.03;;;13.93;;
1775;SDS011;885;42.626;23.200;2022-11-28T15:22:27;14.73;;;13.23;;
1775;SDS011;885;42.626;23.200;2022-11-28T15:24:55;14.17;;;12.30;;
1775;SDS011;885;42.626;23.200;2022-11-28T15:27:23;14.23;;;11.37;;
1775;SDS011;885;42.626;23.200;2022-11-28T15:29:52;14.30;;;12.53;;
1775;SDS011;885;42.626;23.200;2022-11-28T15:32:21;16.50;;;12.50;;
1775;SDS011;885;42.626;23.200;2022-11-28T15:34:53;20.50;;;14.60;;
1775;SDS011;885;42.626;23.200;2022-11-28T15:37:26;17.43;;;12.00;;
1775;SDS011;885;42.626;23.200;2022-11-28T15:39:54;12.80;;;10.63;;
1775;SDS011;885;42.626;23.200;2022-11-28T15:42:23;11.80;;;10.57;;
1775;SDS011;885;42.626;23.200;2022-11-28T15:44:54;12.13;;;10.67;;
1775;SDS011;885;42.626;23.200;2022-11-28T15:47:24;9.57;;;8.57;;
1775;SDS011;885;42.626;23.200;2022-11-28T15:49:59;11.23;;;9.90;;
1775;SDS011;885;42.626;23.200;2022-11-28T15:52:29;9.40;;;8.23;;
1775;SDS011;885;42.626;23.200;2022-11-28T15:54:56;10.60;;;9.30;;
1775;SDS011;885;42.626;23.200;2022-11-28T15:57:23;13.07;;;9.40;;
1775;SDS011;885;42.626;23.200;2022-11-28T15:59:52;14.40;;;11.80;;
1775;SDS011;885;42.626;23.200;2022-11-28T16:02:23;12.93;;;11.63;;
1775;SDS011;885;42.626;23.200;2022-11-28T16:04:56;12.70;;;11.33;;
1775;SDS011;885;42.626;23.200;2022-11-28T16:07:28;13.10;;;10.37;;
1775;SDS011;885;42.626;23.200;2022-11-28T16:09:57;12.53;;;10.50;;
1775;SDS011;885;42.626;23.200;2022-11-28T16:12:25;17.90;;;12.00;;
1775;SDS011;885;42.626;23.200;2022-11-28T16:14:53;15.43;;;10.93;;